Decoded Metar for MMZC (ZACATECAS in MEXICO) (IATA:ZCL) | Meteo·Mobile Aviation Weather
aviador You're here:

MMZC Decoded Metar

ZACATECAS in MEXICO
Report Time2018-12-14 23:40:00
UTC Time2018-12-15 00:16:44
Flight Rules vfr VFR
Wind330° at 10 kt
W.Decomp.*RWY 02: 5.3 kt HW 8.5 kt LCW
W.Rank330° ranks 34
Current wind is above 330° avg. (7.2)
Visibility9999 m
Phenomena:N/A
Clouds:Broken 200 Hf
Expected CloudBase > 11,200 ft AGL from Temp-Dew spread
Ceiling20,000 ft
Temp09°C (ISA +8)
Dew Point-19°C (12% RH)
AAT1.9°C
QNH1026 hPa
Density Alt7,687 ft
Elevation7,142 ft
Report Wrong Elevation
Raw Report
MMZC 142340Z 33010KT 10SM BKN200 09/M19 A3029 RMK 8/001=

Extra information for MMZC:More info

Metar Taf Metar & Taf Last 4 Metars F.Rules Stats Wind Profile Meteogram Temp Stats Airport Information Weather charts Add Link Nearby VenuesMetar ALERT Operation Metar Decoded Social comments